»·PEaware :: JBU180 KLGB-KLAS

JBU180 :: KLGB-KLAS

FLIGHT INFORMATION

Flight Status: Arrived
Operator:
JetBlue Airways
More flights by this operator :: More flights under this callsign
Pilot: Terry G. (10407)
Aircraft: AIRBUS A320
(A320)
More flights by this aircraft type
Origin: KLGB Long Beach
United States
Destination: KLAS McCarran Intl
United States
More flights between these airports :: More routes between these airports
Route: +ZOOMM1 MISEN KEPEC4
File this flight plan on PilotEdge
Remarks: PBN / A1B1C1D1O1S1 NAV / RNVD1E2A1 REG / N320SB RMK / SIMBRIEF
Altitude:
(Current/Filed)
35,000ft
Speed:
(Current/Filed)
458kts
Departed: 01-Jun-17 01:46 PM
Arrived: 01-Jun-17 02:44 PM
Distance/Time
Traveled:
201nm/0:57
Distance/Time
To Go:
Arrived

Flight Plot

Page will automatically refresh every two minutes.

Flight plan parsing failed; only flown route is shown


Map Options




Map Legend


Flown Route
Filed Route
Departure Airport
Arrival Airport
Navaid (VOR, NDB)
Fix

Horizontal Profiles

Position Reports

Time Latitude Longitude Heading Altitude Ground
Speed
01-Jun-17 13:18 33.815513 -118.145361 120 74ft 0kts
01-Jun-17 13:19 33.815513 -118.145361 120 74ft 0kts
01-Jun-17 13:20 33.815513 -118.145361 120 74ft 0kts
01-Jun-17 13:21 33.815513 -118.145361 120 74ft 0kts
01-Jun-17 13:22 33.815513 -118.145361 120 74ft 0kts
01-Jun-17 13:23 33.815513 -118.145361 120 74ft 0kts
01-Jun-17 13:24 33.815513 -118.145361 120 74ft 0kts
01-Jun-17 13:25 33.815513 -118.145361 120 74ft 0kts
01-Jun-17 13:26 33.815513 -118.145361 120 74ft 0kts
01-Jun-17 13:27 33.815513 -118.145361 120 74ft 0kts
01-Jun-17 13:28 33.815513 -118.145361 120 74ft 0kts
01-Jun-17 13:29 33.815513 -118.145361 120 74ft 0kts
01-Jun-17 13:30 33.815513 -118.145361 120 74ft 0kts
01-Jun-17 13:31 33.815513 -118.145361 120 74ft 0kts
01-Jun-17 13:32 33.815513 -118.145361 120 74ft 0kts
01-Jun-17 13:33 33.815513 -118.145361 120 74ft 0kts
01-Jun-17 13:34 33.815513 -118.145361 120 74ft 0kts
01-Jun-17 13:35 33.815513 -118.145361 120 74ft 0kts
01-Jun-17 13:36 33.815513 -118.145361 120 74ft 0kts
01-Jun-17 13:37 33.815513 -118.145361 120 74ft 0kts
01-Jun-17 13:38 33.815513 -118.145361 120 74ft 0kts
01-Jun-17 13:39 33.815513 -118.145361 120 74ft 0kts
01-Jun-17 13:40 33.815514 -118.145363 120 74ft 0kts
01-Jun-17 13:41 33.815468 -118.145890 356 74ft 2kts
01-Jun-17 13:42 33.815356 -118.145882 355 74ft 0kts
01-Jun-17 13:43 33.815356 -118.145882 355 74ft 0kts
01-Jun-17 13:44 33.815357 -118.145882 355 74ft 0kts
01-Jun-17 13:45 33.815349 -118.145760 145 74ft 6kts
01-Jun-17 13:46 33.812107 -118.142820 136 74ft 20kts
01-Jun-17 13:47 33.807617 -118.138009 259 74ft 0kts
01-Jun-17 13:48 33.808182 -118.139745 313 74ft 42kts
01-Jun-17 13:49 33.814679 -118.145709 137 74ft 18kts
01-Jun-17 13:50 33.810501 -118.140961 136 74ft 26kts
01-Jun-17 13:51 33.807331 -118.138767 277 74ft 10kts
01-Jun-17 13:52 33.826329 -118.161533 312 880ft 158kts
01-Jun-17 13:53 33.833804 -118.209317 214 2899ft 201kts
01-Jun-17 13:54 33.770530 -118.228374 191 5133ft 263kts
01-Jun-17 13:55 33.695891 -118.248420 191 7004ft 283kts
01-Jun-17 13:56 33.618293 -118.269775 190 7852ft 291kts
01-Jun-17 13:57 33.561100 -118.216691 95 10581ft 303kts
01-Jun-17 13:58 33.616219 -118.137320 26 11749ft 364kts
01-Jun-17 13:59 33.709481 -118.077059 28 13722ft 388kts
01-Jun-17 14:00 33.804993 -118.012842 27 15825ft 399kts
01-Jun-17 14:01 33.903425 -117.946443 29 17548ft 411kts
01-Jun-17 14:02 33.996094 -117.862710 34 19320ft 422kts
01-Jun-17 14:03 34.090013 -117.774838 40 20880ft 436kts
01-Jun-17 14:04 34.168419 -117.660091 48 22312ft 449kts
01-Jun-17 14:05 34.248399 -117.541582 47 23607ft 459kts
01-Jun-17 14:06 34.329335 -117.420521 47 24808ft 467kts
01-Jun-17 14:07 34.411572 -117.297543 47 26183ft 470kts
01-Jun-17 14:08 34.493555 -117.174317 47 26969ft 467kts
01-Jun-17 14:09 34.575635 -117.052440 46 26988ft 466kts
01-Jun-17 14:10 34.658533 -116.931598 46 26997ft 466kts
01-Jun-17 14:11 34.741270 -116.810554 47 26971ft 466kts
01-Jun-17 14:12 34.822822 -116.690753 47 26315ft 443kts
01-Jun-17 14:13 34.910481 -116.589646 34 25309ft 431kts
01-Jun-17 14:14 35.003024 -116.500621 35 24108ft 419kts
01-Jun-17 14:15 35.094712 -116.411342 36 23906ft 423kts
01-Jun-17 14:16 35.178383 -116.308636 43 23914ft 426kts
01-Jun-17 14:17 35.261166 -116.204993 43 23909ft 427kts
01-Jun-17 14:18 35.343565 -116.101131 44 21545ft 425kts
01-Jun-17 14:19 35.424598 -115.998813 45 19229ft 410kts
01-Jun-17 14:20 35.502541 -115.900172 46 16947ft 396kts
01-Jun-17 14:21 35.577515 -115.804895 47 14734ft 380kts
01-Jun-17 14:22 35.648718 -115.714362 47 13217ft 344kts
01-Jun-17 14:23 35.711119 -115.634587 48 13023ft 316kts
01-Jun-17 14:24 35.780687 -115.572471 5 13020ft 329kts
01-Jun-17 14:25 35.871691 -115.569426 3 13032ft 323kts
01-Jun-17 14:26 35.961112 -115.560242 26 13001ft 320kts
01-Jun-17 14:27 35.999731 -115.474258 74 12517ft 280kts
01-Jun-17 14:28 36.027863 -115.385413 74 11016ft 275kts
01-Jun-17 14:29 36.024954 -115.293919 97 10213ft 267kts
01-Jun-17 14:30 36.018688 -115.204871 97 9431ft 242kts
01-Jun-17 14:31 36.013100 -115.122281 96 8031ft 241kts
01-Jun-17 14:32 36.040370 -115.053446 32 8031ft 250kts
01-Jun-17 14:33 36.100415 -115.009763 31 8012ft 251kts
01-Jun-17 14:34 36.160878 -114.965985 31 7998ft 251kts
01-Jun-17 14:35 36.221141 -114.922270 31 7995ft 251kts
01-Jun-17 14:36 36.278626 -114.880576 31 8022ft 220kts
01-Jun-17 14:37 36.330745 -114.842897 31 7998ft 217kts
01-Jun-17 14:38 36.373976 -114.867692 262 7982ft 209kts
01-Jun-17 14:39 36.340513 -114.922218 217 7718ft 198kts
01-Jun-17 14:40 36.303839 -114.963326 220 7151ft 161kts
01-Jun-17 14:41 36.266381 -115.005318 220 5351ft 196kts
01-Jun-17 14:42 36.224875 -115.047496 212 5030ft 191kts
01-Jun-17 14:43 36.181835 -115.084679 216 4430ft 195kts
01-Jun-17 14:44 36.145811 -115.121851 215 3370ft 147kts
01-Jun-17 14:45 36.113089 -115.148741 198 2518ft 135kts
01-Jun-17 14:46 36.089097 -115.162179 151 2195ft 4kts
01-Jun-17 14:47 36.088161 -115.160046 117 2195ft 15kts
01-Jun-17 14:48 36.087587 -115.158481 112 2195ft 0kts
01-Jun-17 14:49 36.087578 -115.158455 111 2195ft 1kts
01-Jun-17 14:50 36.085007 -115.156931 152 2195ft 16kts
01-Jun-17 14:51 36.080103 -115.154141 154 2195ft 23kts
01-Jun-17 14:52 36.078642 -115.149663 94 2195ft 19kts
01-Jun-17 14:53 36.078288 -115.143607 86 2195ft 14kts
01-Jun-17 14:54 36.078265 -115.136968 89 2195ft 22kts
01-Jun-17 14:55 36.079942 -115.133549 346 2195ft 13kts
01-Jun-17 14:56 36.080897 -115.135112 227 2195ft 0kts
01-Jun-17 14:57 36.080897 -115.135112 227 2195ft 0kts
01-Jun-17 14:58 36.080897 -115.135112 227 2195ft 0kts
01-Jun-17 14:59 36.080897 -115.135112 227 2195ft 0kts

Navigation Log

Ident Type
Flight plan parsing failed, navigation log unavailable